Time;durP1;ratioP1;P1;durP2;ratioP2;P2;SDS_P1;SDS_P2;PMS_P1;PMS_P2;Temp;Humidity;BMP_temperature;BMP_pressure;BME280_temperature;BME280_humidity;BME280_pressure;Samples;Min_cycle;Max_cycle;Signal;HPM_P1;HPM_P2
2021/08/03 00:01:52;;;;;;;5.45;2.42;;;33.60;31.60;;;;;;4356379;32;20087;-39
2021/08/03 00:04:22;;;;;;;5.03;2.83;;;33.60;32.20;;;;;;4303392;33;20121;-39
2021/08/03 00:06:53;;;;;;;3.30;2.50;;;33.60;31.30;;;;;;4316134;33;20071;-39
2021/08/03 00:09:20;;;;;;;3.92;1.85;;;33.70;31.40;;;;;;4315886;33;20625;-39
2021/08/03 00:11:47;;;;;;;3.60;2.72;;;33.70;31.20;;;;;;4327792;33;20104;-38
2021/08/03 00:14:14;;;;;;;8.25;3.03;;;33.70;31.20;;;;;;4328233;33;20074;-38
2021/08/03 00:16:42;;;;;;;4.60;2.72;;;33.70;31.10;;;;;;4327784;33;20622;-38
2021/08/03 00:19:09;;;;;;;4.93;2.30;;;33.70;31.10;;;;;;4327865;33;20056;-38
2021/08/03 00:21:35;;;;;;;3.30;2.85;;;33.60;31.00;;;;;;4315415;33;20080;-39
2021/08/03 00:24:03;;;;;;;6.85;3.08;;;33.70;31.10;;;;;;4316015;33;20533;-38
2021/08/03 00:26:29;;;;;;;4.45;2.42;;;33.60;31.00;;;;;;4327983;33;20051;-39
2021/08/03 00:28:56;;;;;;;5.45;2.65;;;33.70;31.00;;;;;;4315817;33;20078;-38
2021/08/03 00:31:24;;;;;;;10.88;1.92;;;33.70;30.90;;;;;;4315681;33;20141;-39
2021/08/03 00:33:55;;;;;;;5.20;2.60;;;33.70;30.90;;;;;;4314688;33;20071;-39
2021/08/03 00:36:26;;;;;;;6.18;2.28;;;33.70;31.00;;;;;;4328020;33;20614;-38
2021/08/03 00:38:56;;;;;;;5.62;2.10;;;33.70;30.70;;;;;;4328008;33;20160;-39
2021/08/03 00:41:28;;;;;;;3.83;2.55;;;33.80;30.70;;;;;;4333189;33;20482;-40
2021/08/03 00:43:56;;;;;;;6.45;2.60;;;33.80;30.50;;;;;;4331385;33;20150;-39
2021/08/03 00:46:22;;;;;;;2.92;2.62;;;33.80;30.40;;;;;;4331430;33;20518;-40
2021/08/03 00:48:48;;;;;;;5.65;2.12;;;33.90;30.30;;;;;;4331545;33;20067;-39
2021/08/03 00:51:15;;;;;;;5.00;2.28;;;33.90;30.20;;;;;;4344944;33;20078;-39
2021/08/03 00:53:44;;;;;;;5.05;2.80;;;34.00;30.00;;;;;;4344375;33;20096;-38
2021/08/03 00:56:11;;;;;;;4.18;2.45;;;34.00;30.00;;;;;;4344763;33;20059;-38
2021/08/03 00:58:39;;;;;;;3.95;2.20;;;34.00;29.90;;;;;;4332811;32;20074;-39
2021/08/03 01:01:06;;;;;;;4.82;1.98;;;34.10;29.90;;;;;;4359565;32;20166;-39
2021/08/03 01:03:32;;;;;;;6.03;3.65;;;34.10;29.70;;;;;;4344999;32;20581;-39
2021/08/03 01:06:25;;;;;;;7.25;2.25;;;34.10;29.70;;;;;;4359636;32;20062;-39
2021/08/03 01:09:15;;;;;;;5.10;1.77;;;34.20;29.70;;;;;;4360731;32;20062;-38
2021/08/03 01:11:56;;;;;;;6.10;2.30;;;34.30;29.60;;;;;;4371314;32;20081;-38
2021/08/03 01:14:47;;;;;;;5.93;2.28;;;34.30;29.60;;;;;;4360074;32;20058;-39
2021/08/03 01:17:25;;;;;;;7.53;2.83;;;34.40;29.50;;;;;;4359463;32;20084;-38
2021/08/03 01:20:51;;;;;;;3.83;1.95;;;34.50;29.50;;;;;;4371397;32;20084;-39
2021/08/03 01:23:38;;;;;;;2.30;2.10;;;34.50;29.40;;;;;;4318988;32;20087;-39
2021/08/03 01:27:00;;;;;;;5.47;2.37;;;34.60;29.40;;;;;;4371539;32;20093;-39
2021/08/03 01:29:26;;;;;;;6.57;2.90;;;34.60;29.30;;;;;;4362868;32;20577;-39
2021/08/03 01:32:03;;;;;;;6.43;3.10;;;34.70;29.20;;;;;;4359118;32;20101;-39
2021/08/03 01:34:30;;;;;;;11.80;3.25;;;34.80;29.20;;;;;;4359112;32;20073;-38
2021/08/03 01:36:57;;;;;;;8.32;2.53;;;34.90;29.20;;;;;;4359442;32;20062;-39
2021/08/03 01:39:38;;;;;;;20.15;6.72;;;34.90;29.20;;;;;;4358648;32;20525;-37
2021/08/03 01:42:07;;;;;;;4.50;3.60;;;34.90;29.30;;;;;;4330935;33;20156;-39
2021/08/03 01:44:34;;;;;;;6.70;2.97;;;34.90;29.20;;;;;;4340868;32;20075;-38
2021/08/03 01:47:02;;;;;;;5.43;2.60;;;35.10;29.20;;;;;;4327069;33;20071;-38
2021/08/03 01:49:28;;;;;;;10.48;3.37;;;35.10;29.00;;;;;;4327934;33;20070;-38
2021/08/03 01:51:54;;;;;;;7.07;2.90;;;35.20;29.00;;;;;;4315443;33;20162;-38
2021/08/03 01:54:21;;;;;;;7.62;3.08;;;35.30;29.10;;;;;;4303283;33;20161;-38
2021/08/03 01:56:48;;;;;;;5.55;3.72;;;35.30;28.90;;;;;;4315203;33;20158;-38
2021/08/03 01:59:14;;;;;;;7.03;3.08;;;35.50;28.90;;;;;;4320477;33;20146;-38
2021/08/03 02:01:41;;;;;;;7.72;2.60;;;35.60;28.80;;;;;;4342357;33;20066;-38
2021/08/03 02:04:07;;;;;;;7.55;2.70;;;35.60;28.60;;;;;;4342215;33;20075;-38
2021/08/03 02:06:36;;;;;;;5.85;2.55;;;35.70;28.80;;;;;;4341887;33;20140;-39
2021/08/03 02:09:03;;;;;;;9.48;2.92;;;35.80;28.70;;;;;;4343604;32;20090;-38
2021/08/03 02:11:31;;;;;;;8.35;5.03;;;35.80;28.60;;;;;;4343788;32;20062;-38
2021/08/03 02:13:58;;;;;;;3.65;2.90;;;35.80;28.60;;;;;;4342475;33;20071;-38
2021/08/03 02:16:24;;;;;;;6.20;2.95;;;35.80;28.60;;;;;;4341959;33;20066;-39
2021/08/03 02:18:52;;;;;;;6.68;2.10;;;35.90;28.80;;;;;;4343726;32;20055;-38
2021/08/03 02:21:20;;;;;;;10.88;2.85;;;35.80;28.80;;;;;;4343529;32;20580;-39
2021/08/03 02:23:48;;;;;;;5.65;2.60;;;35.90;28.80;;;;;;4311044;33;20247;-37
2021/08/03 02:26:14;;;;;;;4.97;2.65;;;35.90;28.60;;;;;;4311699;33;20080;-38
2021/08/03 02:28:41;;;;;;;5.78;2.53;;;35.90;28.70;;;;;;4299455;33;20145;-38
2021/08/03 02:31:29;;;;;;;6.82;2.47;;;35.90;28.90;;;;;;4311417;33;20208;-39
2021/08/03 02:34:02;;;;;;;7.07;2.40;;;35.90;28.90;;;;;;4311491;33;20121;-38
2021/08/03 02:36:29;;;;;;;7.62;3.08;;;35.90;28.80;;;;;;4299842;33;20074;-38
2021/08/03 02:39:03;;;;;;;7.25;2.20;;;36.00;28.90;;;;;;4311491;33;20460;-39
2021/08/03 02:41:30;;;;;;;5.28;2.45;;;36.10;28.80;;;;;;4311552;33;20070;-38
2021/08/03 02:43:57;;;;;;;8.98;2.35;;;36.30;28.70;;;;;;4299395;33;20547;-38
2021/08/03 02:46:24;;;;;;;7.43;2.05;;;36.50;28.60;;;;;;4299352;33;20151;-39
2021/08/03 02:49:12;;;;;;;6.65;2.72;;;36.70;28.40;;;;;;4299604;33;20109;-38
2021/08/03 02:51:39;;;;;;;6.18;2.08;;;37.00;28.10;;;;;;4301299;33;20060;-39
2021/08/03 02:54:23;;;;;;;3.35;2.35;;;37.40;27.80;;;;;;4302710;33;20075;-39
2021/08/03 02:56:51;;;;;;;8.90;2.65;;;37.90;27.50;;;;;;4302956;33;20105;-38
2021/08/03 02:59:18;;;;;;;6.75;2.40;;;38.30;27.30;;;;;;4337372;32;20059;-37
2021/08/03 03:01:44;;;;;;;6.28;2.78;;;38.70;26.90;;;;;;4320278;33;20106;-38
2021/08/03 03:04:33;;;;;;;7.15;2.25;;;39.10;26.70;;;;;;4332297;33;20474;-37
2021/08/03 03:07:29;;;;;;;7.75;2.53;;;39.60;26.60;;;;;;4332493;33;20211;-37
2021/08/03 03:09:56;;;;;;;7.00;1.98;;;40.00;26.20;;;;;;4338772;33;20106;-38
2021/08/03 03:12:23;;;;;;;6.03;2.50;;;40.40;25.80;;;;;;4332213;33;20233;-39
2021/08/03 03:14:49;;;;;;;4.82;2.40;;;40.80;25.70;;;;;;4332290;33;20148;-39
2021/08/03 03:17:16;;;;;;;5.10;2.62;;;41.10;25.60;;;;;;4320004;33;20069;-38
2021/08/03 03:19:42;;;;;;;7.82;2.20;;;41.40;25.30;;;;;;4332059;33;20091;-39
2021/08/03 03:22:09;;;;;;;8.50;2.05;;;41.80;25.10;;;;;;4332241;33;20516;-38
2021/08/03 03:24:36;;;;;;;3.55;2.33;;;42.10;25.00;;;;;;4319801;33;20114;-38
2021/08/03 03:27:03;;;;;;;4.37;2.42;;;42.30;24.80;;;;;;4346486;33;20058;-39
2021/08/03 03:29:30;;;;;;;8.60;2.58;;;42.50;24.50;;;;;;4344700;33;20082;-38
2021/08/03 03:31:57;;;;;;;4.60;2.42;;;42.80;24.50;;;;;;4331810;33;20086;-38
2021/08/03 03:34:26;;;;;;;2.33;1.80;;;42.90;24.30;;;;;;4319289;33;20086;-38
2021/08/03 03:36:53;;;;;;;7.18;1.80;;;43.10;24.20;;;;;;4345638;33;20120;-39
2021/08/03 03:39:20;;;;;;;7.18;2.37;;;43.30;24.20;;;;;;4319615;33;20313;-39
2021/08/03 03:41:49;;;;;;;4.85;2.25;;;43.50;24.00;;;;;;4337806;32;20081;-39
2021/08/03 03:44:16;;;;;;;7.43;2.08;;;43.70;24.10;;;;;;4330571;33;20086;-39
2021/08/03 03:46:47;;;;;;;4.30;2.15;;;43.80;23.90;;;;;;4342679;32;20634;-38
2021/08/03 03:49:16;;;;;;;4.22;1.77;;;44.00;23.90;;;;;;4286966;33;20078;-38
2021/08/03 03:51:43;;;;;;;6.00;2.00;;;44.20;23.80;;;;;;4287103;33;20188;-38
2021/08/03 03:54:33;;;;;;;4.53;2.47;;;44.40;23.80;;;;;;4287244;33;20078;-39
2021/08/03 03:57:05;;;;;;;5.55;2.03;;;44.60;23.70;;;;;;4298289;33;20196;-39
2021/08/03 03:59:31;;;;;;;3.95;1.98;;;44.80;23.60;;;;;;4286962;33;20060;-38
2021/08/03 04:02:02;;;;;;;5.25;2.22;;;44.90;23.80;;;;;;4274953;33;20582;-38
2021/08/03 04:04:30;;;;;;;6.28;2.22;;;45.10;23.70;;;;;;4286909;33;20673;-37
2021/08/03 04:06:59;;;;;;;5.68;2.20;;;45.10;23.70;;;;;;4274950;33;20095;-38
2021/08/03 04:09:26;;;;;;;2.95;2.28;;;45.20;23.70;;;;;;4286632;33;20068;-39
2021/08/03 04:11:53;;;;;;;5.20;2.28;;;45.30;23.90;;;;;;4298582;33;20516;-38
2021/08/03 04:14:25;;;;;;;4.70;2.28;;;45.30;23.60;;;;;;4298605;33;20642;-39
2021/08/03 04:16:52;;;;;;;12.05;2.62;;;45.40;23.70;;;;;;4287033;33;20184;-39
2021/08/03 04:19:19;;;;;;;8.45;2.60;;;45.50;23.80;;;;;;4303896;33;20076;-39
2021/08/03 04:21:46;;;;;;;6.18;2.22;;;45.50;23.40;;;;;;4338663;32;20086;-38
2021/08/03 04:24:16;;;;;;;3.92;2.37;;;45.50;23.40;;;;;;4359488;32;20109;-39
2021/08/03 04:26:43;;;;;;;6.60;2.03;;;45.60;23.50;;;;;;4359741;32;20470;-38
2021/08/03 04:29:10;;;;;;;4.43;1.77;;;45.70;23.30;;;;;;4359916;32;20536;-38
2021/08/03 04:31:37;;;;;;;10.55;1.85;;;45.80;23.20;;;;;;4359566;32;20067;-37
2021/08/03 04:34:03;;;;;;;3.97;1.98;;;45.90;23.10;;;;;;4359664;32;20070;-38
2021/08/03 04:36:30;;;;;;;7.12;2.45;;;46.00;23.10;;;;;;4345739;32;20078;-37
2021/08/03 04:38:56;;;;;;;2.83;2.35;;;46.00;23.00;;;;;;4359884;32;20109;-38
2021/08/03 04:41:23;;;;;;;3.50;1.98;;;46.20;23.00;;;;;;4359568;32;20082;-38
2021/08/03 04:43:49;;;;;;;6.95;2.58;;;46.30;23.00;;;;;;4359631;32;20066;-38
2021/08/03 04:46:16;;;;;;;8.32;3.12;;;46.40;23.00;;;;;;4359603;32;20069;-38
2021/08/03 04:48:42;;;;;;;5.78;2.47;;;46.50;23.10;;;;;;4359575;32;20063;-39
2021/08/03 04:51:09;;;;;;;3.60;2.22;;;46.50;23.10;;;;;;4359324;32;20074;-38
2021/08/03 04:53:35;;;;;;;4.60;2.08;;;46.60;23.00;;;;;;4359455;32;20067;-47
2021/08/03 04:56:01;;;;;;;6.55;2.55;;;46.60;23.10;;;;;;4359407;32;20206;-45
2021/08/03 04:58:28;;;;;;;2.87;2.40;;;46.80;23.40;;;;;;4359131;32;20089;-39
2021/08/03 05:00:55;;;;;;;6.07;2.25;;;46.80;23.30;;;;;;4359361;32;20078;-37
2021/08/03 05:03:21;;;;;;;5.87;1.75;;;46.80;23.20;;;;;;4359389;32;20101;-38
2021/08/03 05:05:47;;;;;;;4.12;2.50;;;46.90;23.40;;;;;;4359225;32;20062;-38
2021/08/03 05:08:14;;;;;;;4.20;2.40;;;47.00;23.50;;;;;;4357129;32;20070;-39
2021/08/03 05:10:41;;;;;;;4.20;2.62;;;46.90;23.30;;;;;;4359398;32;20507;-39
2021/08/03 05:13:07;;;;;;;7.82;2.62;;;47.00;23.40;;;;;;4359253;32;20082;-39
2021/08/03 05:15:34;;;;;;;7.53;1.90;;;46.90;23.30;;;;;;4359314;32;20081;-38
2021/08/03 05:18:00;;;;;;;8.00;2.87;;;46.90;23.20;;;;;;4359052;32;20063;-38
2021/08/03 05:20:26;;;;;;;3.25;2.92;;;47.00;23.20;;;;;;4358454;32;20516;-38
2021/08/03 05:22:53;;;;;;;9.25;3.33;;;46.90;23.10;;;;;;4359259;32;20440;-38
2021/08/03 05:25:20;;;;;;;7.03;2.40;;;47.00;23.20;;;;;;4359117;32;20086;-39
2021/08/03 05:27:46;;;;;;;4.00;2.15;;;47.00;23.00;;;;;;4344653;32;20092;-39
2021/08/03 05:30:13;;;;;;;6.15;2.33;;;47.00;23.00;;;;;;4359128;32;20630;-38
2021/08/03 05:32:39;;;;;;;5.05;1.90;;;47.10;23.10;;;;;;4358750;32;20137;-39
2021/08/03 05:35:07;;;;;;;6.95;2.30;;;47.20;22.80;;;;;;4358407;32;20125;-39
2021/08/03 05:37:33;;;;;;;5.05;2.05;;;47.30;22.70;;;;;;4333019;32;20071;-38
2021/08/03 05:40:02;;;;;;;6.43;2.30;;;47.40;22.60;;;;;;4358797;32;20616;-38
2021/08/03 05:42:29;;;;;;;9.02;2.15;;;47.50;22.50;;;;;;4346189;32;20160;-39
2021/08/03 05:44:55;;;;;;;5.65;2.35;;;47.60;22.40;;;;;;4330550;33;20466;-38
2021/08/03 05:47:21;;;;;;;4.65;2.10;;;47.70;22.70;;;;;;4343593;33;20577;-39
2021/08/03 05:49:48;;;;;;;4.40;1.87;;;47.70;22.50;;;;;;4343600;32;20143;-39
2021/08/03 05:52:14;;;;;;;3.35;2.25;;;47.70;22.40;;;;;;4343875;33;20059;-39
2021/08/03 05:54:41;;;;;;;5.47;1.95;;;47.60;22.20;;;;;;4297226;33;20309;-39
2021/08/03 05:57:07;;;;;;;6.00;2.20;;;47.60;22.20;;;;;;4296932;33;20553;-38
2021/08/03 05:59:34;;;;;;;11.77;3.30;;;47.70;22.40;;;;;;4304284;33;20141;-40
2021/08/03 06:02:00;;;;;;;9.57;3.03;;;47.80;22.30;;;;;;4311920;33;20145;-40
2021/08/03 06:04:27;;;;;;;7.20;2.58;;;48.00;22.20;;;;;;4311687;33;20059;-37
2021/08/03 06:06:55;;;;;;;5.70;2.58;;;48.20;22.20;;;;;;4311836;33;20162;-39
2021/08/03 06:09:21;;;;;;;4.93;1.90;;;48.30;22.10;;;;;;4282331;33;20078;-39
2021/08/03 06:11:50;;;;;;;5.07;2.35;;;48.50;22.00;;;;;;4258683;33;20066;-39
2021/08/03 06:14:56;;;;;;;3.70;2.03;;;48.70;22.00;;;;;;4270967;33;20698;-40
2021/08/03 06:17:35;;;;;;;4.68;2.37;;;48.80;22.20;;;;;;4225833;33;20074;-39
2021/08/03 06:20:01;;;;;;;4.22;2.30;;;48.80;22.10;;;;;;4225859;33;20080;-38
2021/08/03 06:22:28;;;;;;;7.78;2.37;;;48.80;22.20;;;;;;4225808;33;20155;-39
2021/08/03 06:24:54;;;;;;;7.40;2.35;;;48.80;22.10;;;;;;4221609;33;20473;-38
2021/08/03 06:27:21;;;;;;;9.77;2.08;;;48.90;22.10;;;;;;4256278;33;20525;-39
2021/08/03 06:29:48;;;;;;;9.45;2.60;;;48.90;22.20;;;;;;4267822;33;20071;-39
2021/08/03 06:32:15;;;;;;;7.50;2.37;;;49.00;22.30;;;;;;4255886;33;20067;-37
2021/08/03 06:34:43;;;;;;;6.18;2.22;;;49.10;22.20;;;;;;4268187;33;20075;-38
2021/08/03 06:37:10;;;;;;;7.32;2.33;;;49.20;22.10;;;;;;4268259;33;20095;-39
2021/08/03 06:39:37;;;;;;;7.30;2.22;;;49.30;22.10;;;;;;4273260;33;20071;-38
2021/08/03 06:42:16;;;;;;;6.40;2.90;;;49.40;22.10;;;;;;4289258;33;20083;-39
2021/08/03 06:44:50;;;;;;;5.80;2.65;;;49.00;22.10;;;;;;4282591;33;20082;-38
2021/08/03 06:47:19;;;;;;;;;;;48.50;22.40;;;;;;4270811;33;20138;-39
2021/08/03 06:49:48;;;;;;;6.05;2.80;;;48.00;22.50;;;;;;4270458;33;20025;-37
2021/08/03 06:52:16;;;;;;;8.30;3.28;;;47.80;22.70;;;;;;4335660;32;20135;-38
2021/08/03 06:54:48;;;;;;;4.55;2.37;;;47.60;22.90;;;;;;4329598;33;20163;-39
2021/08/03 06:57:16;;;;;;;8.00;3.08;;;47.60;22.90;;;;;;4342984;32;20139;-40
2021/08/03 06:59:50;;;;;;;12.48;2.62;;;47.80;22.80;;;;;;4351299;32;20566;-39
2021/08/03 07:02:28;;;;;;;4.18;2.30;;;48.00;22.80;;;;;;4358309;32;20129;-40
2021/08/03 07:05:19;;;;;;;5.60;2.55;;;48.30;22.70;;;;;;4357916;32;20054;-38
2021/08/03 07:07:46;;;;;;;4.30;3.40;;;48.50;22.80;;;;;;4357957;32;20101;-38
2021/08/03 07:10:15;;;;;;;8.45;2.53;;;48.50;22.60;;;;;;4357703;32;20059;-38
2021/08/03 07:12:44;;;;;;;11.93;2.17;;;48.50;22.80;;;;;;4357491;32;20617;-39
2021/08/03 07:15:12;;;;;;;6.97;3.05;;;48.60;22.50;;;;;;4357398;32;20148;-38
2021/08/03 07:17:42;;;;;;;6.53;2.20;;;48.60;22.50;;;;;;4357683;32;20070;-38
2021/08/03 07:20:11;;;;;;;6.45;2.15;;;48.80;22.40;;;;;;4331950;32;20078;-38
2021/08/03 07:22:39;;;;;;;5.95;2.67;;;48.80;22.20;;;;;;4357569;32;20089;-39
2021/08/03 07:25:06;;;;;;;4.00;2.03;;;48.80;22.40;;;;;;4344049;32;20507;-38
2021/08/03 07:27:32;;;;;;;6.53;2.35;;;48.70;22.30;;;;;;4357678;32;20069;-38
2021/08/03 07:29:59;;;;;;;9.52;3.28;;;48.50;22.50;;;;;;4357273;32;20064;-39
2021/08/03 07:32:25;;;;;;;9.75;2.65;;;48.40;22.70;;;;;;4357794;32;20078;-40
2021/08/03 07:34:52;;;;;;;6.22;2.92;;;48.30;22.60;;;;;;4357407;32;20067;-38
2021/08/03 07:37:18;;;;;;;5.20;2.55;;;48.40;22.70;;;;;;4357402;32;20077;-40
2021/08/03 07:39:45;;;;;;;11.05;2.47;;;48.50;22.80;;;;;;4357299;32;20585;-38
2021/08/03 07:42:11;;;;;;;11.52;4.07;;;48.60;22.70;;;;;;4348805;32;20586;-39
2021/08/03 07:44:38;;;;;;;5.43;2.30;;;48.70;22.90;;;;;;4331408;33;20098;-38
2021/08/03 07:47:04;;;;;;;7.22;2.37;;;48.70;22.70;;;;;;4345927;33;20179;-39
2021/08/03 07:49:31;;;;;;;6.95;2.60;;;48.70;22.70;;;;;;4331528;33;20130;-39
2021/08/03 07:51:57;;;;;;;5.43;2.15;;;48.70;22.70;;;;;;4345239;33;20557;-38
2021/08/03 07:54:24;;;;;;;8.15;3.28;;;48.50;22.90;;;;;;4331207;33;20148;-39
2021/08/03 07:56:51;;;;;;;9.13;2.17;;;48.60;22.90;;;;;;4345616;33;20070;-38
2021/08/03 07:59:17;;;;;;;7.18;2.65;;;48.60;22.80;;;;;;4312861;33;20094;-39
2021/08/03 08:01:44;;;;;;;8.15;2.78;;;48.60;22.80;;;;;;4312918;33;20350;-38
2021/08/03 08:04:10;;;;;;;4.78;1.67;;;48.60;23.00;;;;;;4301545;33;20095;-39
2021/08/03 08:06:37;;;;;;;11.52;2.72;;;48.60;22.90;;;;;;4313408;33;20087;-39
2021/08/03 08:09:03;;;;;;;7.47;2.33;;;48.70;22.90;;;;;;4313415;33;20103;-38
2021/08/03 08:11:30;;;;;;;9.00;2.00;;;48.80;22.80;;;;;;4313076;33;20079;-38
2021/08/03 08:13:56;;;;;;;7.15;2.15;;;48.80;22.60;;;;;;4312893;33;20542;-39
2021/08/03 08:16:23;;;;;;;8.85;2.62;;;48.80;22.30;;;;;;4313604;33;20067;-39
2021/08/03 08:18:49;;;;;;;7.18;2.60;;;48.80;22.30;;;;;;4313543;33;20074;-39
2021/08/03 08:21:16;;;;;;;10.90;2.62;;;48.70;22.40;;;;;;4313250;33;20137;-38
2021/08/03 08:23:42;;;;;;;4.25;1.50;;;48.70;22.20;;;;;;4312670;33;20493;-39
2021/08/03 08:26:09;;;;;;;6.55;1.90;;;48.60;22.30;;;;;;4313108;33;20060;-38
2021/08/03 08:28:35;;;;;;;5.35;1.60;;;48.50;22.30;;;;;;4312789;33;20146;-39
2021/08/03 08:31:02;;;;;;;5.70;1.80;;;48.50;22.20;;;;;;4350295;32;20494;-39
2021/08/03 08:33:28;;;;;;;6.93;1.65;;;48.50;22.20;;;;;;4359554;32;20074;-38
2021/08/03 08:35:55;;;;;;;4.82;1.30;;;48.50;22.10;;;;;;4359232;32;20085;-39
2021/08/03 08:38:21;;;;;;;3.17;1.40;;;48.70;21.80;;;;;;4359578;32;20062;-39
2021/08/03 08:40:48;;;;;;;7.78;1.20;;;48.70;21.50;;;;;;4359583;32;20159;-39
2021/08/03 08:43:15;;;;;;;5.25;1.25;;;48.70;21.40;;;;;;4330976;33;20087;-37
2021/08/03 08:45:43;;;;;;;4.85;1.30;;;48.70;21.60;;;;;;4344640;33;20081;-37
2021/08/03 08:48:13;;;;;;;8.82;0.80;;;48.80;21.60;;;;;;4344124;32;20187;-39
2021/08/03 08:50:40;;;;;;;6.70;1.40;;;48.90;21.00;;;;;;4344465;32;20067;-40
2021/08/03 08:53:06;;;;;;;5.32;1.00;;;49.00;21.10;;;;;;4326917;33;20071;-39
2021/08/03 08:55:35;;;;;;;9.88;1.10;;;49.10;21.00;;;;;;4326069;33;20134;-38
2021/08/03 08:58:02;;;;;;;4.00;1.20;;;49.30;20.80;;;;;;4327412;33;20535;-41
2021/08/03 09:00:29;;;;;;;3.95;1.00;;;49.40;20.80;;;;;;4327585;33;20620;-39
2021/08/03 09:02:56;;;;;;;13.88;1.70;;;49.50;20.70;;;;;;4341651;33;20179;-40
2021/08/03 09:05:42;;;;;;;7.40;1.20;;;49.70;20.70;;;;;;4329838;33;20078;-39
2021/08/03 09:08:10;;;;;;;7.72;1.80;;;49.80;20.80;;;;;;4342047;33;20117;-38
2021/08/03 09:10:49;;;;;;;5.55;1.17;;;49.60;21.20;;;;;;4341667;33;20082;-38
2021/08/03 09:13:20;;;;;;;5.12;1.50;;;49.50;21.40;;;;;;4341980;33;20063;-38
2021/08/03 09:16:00;;;;;;;11.80;1.45;;;49.30;21.40;;;;;;4341790;33;20303;-39
2021/08/03 09:18:30;;;;;;;7.57;1.17;;;49.20;21.30;;;;;;4341780;33;20156;-39
2021/08/03 09:20:58;;;;;;;6.00;1.05;;;49.30;21.10;;;;;;4342083;33;20137;-38
2021/08/03 09:23:42;;;;;;;6.95;1.30;;;49.40;21.20;;;;;;4333660;32;20075;-38
2021/08/03 09:26:09;;;;;;;5.78;1.67;;;49.40;21.30;;;;;;4359018;32;20085;-39
2021/08/03 09:28:57;;;;;;;7.00;1.30;;;49.40;21.20;;;;;;4345336;32;20198;-38
2021/08/03 09:31:24;;;;;;;10.75;1.40;;;49.30;21.30;;;;;;4359034;32;20141;-38
2021/08/03 09:33:50;;;;;;;9.30;1.40;;;49.20;21.50;;;;;;4358805;32;20474;-39
2021/08/03 09:36:17;;;;;;;6.80;1.25;;;49.20;21.50;;;;;;4358493;32;20062;-40
2021/08/03 09:38:43;;;;;;;6.45;1.37;;;49.10;21.70;;;;;;4358574;32;20058;-38
2021/08/03 09:41:10;;;;;;;11.52;1.40;;;49.00;22.00;;;;;;4356301;32;20059;-38
2021/08/03 09:43:37;;;;;;;4.75;1.85;;;49.10;22.50;;;;;;4343673;33;20059;-40
2021/08/03 09:46:04;;;;;;;5.72;1.30;;;49.20;21.80;;;;;;4330150;33;20175;-39
2021/08/03 09:48:31;;;;;;;7.20;1.85;;;49.40;21.90;;;;;;4329629;33;20088;-39
2021/08/03 09:51:08;;;;;;;6.62;1.25;;;49.40;21.60;;;;;;4343837;33;20078;-38
2021/08/03 09:53:55;;;;;;;4.40;1.37;;;49.60;21.70;;;;;;4343610;33;20082;-39
2021/08/03 09:56:27;;;;;;;6.37;1.30;;;49.70;21.50;;;;;;4343193;32;20070;-39
2021/08/03 09:59:07;;;;;;;7.78;1.50;;;49.80;21.30;;;;;;4311694;33;20515;-39
2021/08/03 10:01:41;;;;;;;5.28;1.10;;;49.80;21.10;;;;;;4299915;33;20063;-38
2021/08/03 10:04:12;;;;;;;8.27;1.37;;;49.80;21.10;;;;;;4311668;33;20110;-38
2021/08/03 10:06:40;;;;;;;10.27;1.58;;;50.00;21.20;;;;;;4311579;33;20076;-39
2021/08/03 10:09:09;;;;;;;4.35;1.30;;;50.20;21.50;;;;;;4311826;33;20151;-37
2021/08/03 10:11:35;;;;;;;7.75;1.48;;;50.40;21.20;;;;;;4267446;33;20137;-37
2021/08/03 10:14:02;;;;;;;5.97;1.35;;;50.70;21.00;;;;;;4255919;33;20080;-38
2021/08/03 10:16:28;;;;;;;4.32;1.70;;;51.00;21.10;;;;;;4268263;33;20636;-38
2021/08/03 10:18:57;;;;;;;4.97;1.55;;;51.20;20.90;;;;;;4256457;33;20547;-38
2021/08/03 10:21:33;;;;;;;3.12;1.10;;;51.50;20.70;;;;;;4256379;33;20548;-38
2021/08/03 10:24:13;;;;;;;7.28;1.48;;;51.70;20.60;;;;;;4256825;33;20067;-38
2021/08/03 10:26:40;;;;;;;7.25;1.30;;;51.90;20.40;;;;;;4257364;33;20159;-38
2021/08/03 10:29:25;;;;;;;5.55;1.17;;;52.00;20.20;;;;;;4267686;33;20516;-41
2021/08/03 10:31:51;;;;;;;6.45;1.92;;;52.20;20.40;;;;;;4255921;33;20108;-38
2021/08/03 10:34:42;;;;;;;4.60;1.30;;;52.20;20.30;;;;;;4268279;33;20537;-38
2021/08/03 10:37:12;;;;;;;5.80;1.08;;;52.20;20.40;;;;;;4303565;33;20118;-38
2021/08/03 10:39:57;;;;;;;5.45;1.20;;;52.20;20.40;;;;;;4311390;33;20090;-38
2021/08/03 10:42:27;;;;;;;12.15;1.67;;;52.20;20.70;;;;;;4302417;33;20090;-37
2021/08/03 10:45:01;;;;;;;7.20;1.30;;;52.10;20.60;;;;;;4314781;33;20114;-38
2021/08/03 10:47:33;;;;;;;6.20;1.00;;;51.90;20.40;;;;;;4328562;33;20074;-37
2021/08/03 10:50:27;;;;;;;4.53;1.08;;;51.90;20.20;;;;;;4328691;33;20077;-38
2021/08/03 10:52:55;;;;;;;4.57;1.33;;;51.80;20.30;;;;;;4316630;33;20068;-38
2021/08/03 10:55:42;;;;;;;3.37;1.00;;;51.70;20.20;;;;;;4328457;33;20144;-37
2021/08/03 10:58:13;;;;;;;6.75;1.60;;;51.70;20.10;;;;;;4328270;33;21057;-38
2021/08/03 11:00:52;;;;;;;5.37;1.00;;;51.60;19.80;;;;;;4341768;33;20538;-39
2021/08/03 11:06:12;;;;;;;1.40;0.90;;;51.50;19.80;;;;;;4343438;33;20086;-39
2021/08/03 11:08:43;;;;;;;6.22;1.00;;;51.50;19.30;;;;;;4343079;33;20090;-37
2021/08/03 11:11:11;;;;;;;4.45;1.65;;;51.60;19.10;;;;;;4342818;33;20164;-38
2021/08/03 11:13:44;;;;;;;6.85;1.50;;;51.70;18.80;;;;;;4328973;33;20093;-38
2021/08/03 11:16:24;;;;;;;3.45;0.80;;;51.90;19.00;;;;;;4342660;33;20154;-39
2021/08/03 11:18:55;;;;;;;6.85;1.10;;;52.00;19.20;;;;;;4332059;33;20544;-38
2021/08/03 11:21:26;;;;;;;4.47;1.48;;;52.00;19.30;;;;;;4345953;33;20148;-39
2021/08/03 11:24:06;;;;;;;3.12;1.20;;;51.90;19.20;;;;;;4345887;33;20141;-37
2021/08/03 11:26:58;;;;;;;3.47;1.00;;;51.90;19.00;;;;;;4332293;33;20090;-39
2021/08/03 11:29:39;;;;;;;5.18;1.27;;;51.90;19.10;;;;;;4345224;33;20128;-37
2021/08/03 11:32:10;;;;;;;6.18;1.10;;;51.90;19.30;;;;;;4332995;33;20102;-37
2021/08/03 11:34:47;;;;;;;8.13;1.20;;;51.80;20.30;;;;;;4345292;33;20062;-38
2021/08/03 11:37:22;;;;;;;7.05;1.40;;;51.50;21.00;;;;;;4332534;33;20071;-37
2021/08/03 11:39:57;;;;;;;6.07;1.73;;;50.90;21.20;;;;;;4319721;33;20202;-37
2021/08/03 11:42:34;;;;;;;9.48;1.87;;;50.30;21.50;;;;;;4355748;32;20101;-38
2021/08/03 11:45:22;;;;;;;9.23;1.67;;;49.50;22.20;;;;;;4360492;32;20612;-37
2021/08/03 11:47:59;;;;;;;5.47;1.42;;;48.90;22.70;;;;;;4360472;32;20541;-38
2021/08/03 11:50:34;;;;;;;1.95;0.80;;;48.30;22.70;;;;;;4360132;32;20093;-37
2021/08/03 11:53:06;;;;;;;4.43;0.98;;;47.80;22.20;;;;;;4360706;32;20510;-37
2021/08/03 11:55:34;;;;;;;4.18;1.00;;;47.30;21.90;;;;;;4360503;32;20458;-38
2021/08/03 11:58:00;;;;;;;4.05;0.90;;;46.90;22.00;;;;;;4360397;32;20074;-38
2021/08/03 12:00:27;;;;;;;7.30;1.10;;;46.60;21.90;;;;;;4343455;32;20454;-37
2021/08/03 12:02:58;;;;;;;5.65;1.00;;;46.40;22.40;;;;;;4331954;33;20115;-37
2021/08/03 12:05:32;;;;;;;9.60;1.00;;;46.30;22.30;;;;;;4331738;33;20583;-37
2021/08/03 12:08:04;;;;;;;5.40;0.90;;;46.40;22.60;;;;;;4345247;33;20145;-38
2021/08/03 12:10:42;;;;;;;3.40;1.00;;;46.40;22.60;;;;;;4331071;33;20256;-37
2021/08/03 12:13:28;;;;;;;7.15;1.12;;;46.30;22.70;;;;;;4345295;33;20059;-38
2021/08/03 12:15:56;;;;;;;5.82;1.80;;;46.30;22.80;;;;;;4345064;33;20152;-39
2021/08/03 12:18:23;;;;;;;8.85;1.05;;;46.30;22.40;;;;;;4344826;33;20067;-38
2021/08/03 12:20:52;;;;;;;7.25;1.17;;;46.20;22.70;;;;;;4344886;33;20177;-39
2021/08/03 12:23:26;;;;;;;7.43;1.10;;;46.30;22.70;;;;;;4345064;33;20551;-38
2021/08/03 12:25:58;;;;;;;6.40;1.08;;;46.50;22.50;;;;;;4344682;33;20062;-38
2021/08/03 12:28:52;;;;;;;7.90;0.82;;;46.70;22.10;;;;;;4344942;33;20063;-38
2021/08/03 12:31:35;;;;;;;9.75;1.08;;;47.00;21.90;;;;;;4337484;33;20507;-39
2021/08/03 12:34:17;;;;;;;8.02;0.88;;;47.10;21.70;;;;;;4344418;33;20440;-39
2021/08/03 12:36:51;;;;;;;4.57;1.20;;;47.20;21.40;;;;;;4344503;33;20065;-38
2021/08/03 12:39:37;;;;;;;2.65;0.80;;;47.20;21.50;;;;;;4344497;33;20082;-39
2021/08/03 12:42:30;;;;;;;5.75;0.70;;;47.20;21.00;;;;;;4344991;33;20072;-37
2021/08/03 12:44:59;;;;;;;4.12;0.60;;;47.20;21.00;;;;;;4332430;33;20061;-38
2021/08/03 12:47:27;;;;;;;4.57;0.82;;;47.20;20.50;;;;;;4343056;33;20499;-38
2021/08/03 12:50:08;;;;;;;4.57;0.60;;;47.40;20.70;;;;;;4344364;33;20508;-38
2021/08/03 12:52:45;;;;;;;4.78;0.70;;;47.60;20.60;;;;;;4344871;33;20071;-38
2021/08/03 12:55:13;;;;;;;1.75;0.60;;;47.80;20.40;;;;;;4331570;33;20144;-39
2021/08/03 12:57:51;;;;;;;2.75;0.60;;;47.90;20.30;;;;;;4344393;33;20079;-38
2021/08/03 13:00:38;;;;;;;5.03;0.82;;;47.90;20.60;;;;;;4337971;33;20155;-38
2021/08/03 13:03:14;;;;;;;5.12;1.00;;;48.00;20.80;;;;;;4342232;33;20645;-39
2021/08/03 13:05:43;;;;;;;2.83;0.60;;;48.00;20.80;;;;;;4341431;33;20074;-39
2021/08/03 13:08:10;;;;;;;1.30;0.80;;;48.00;21.30;;;;;;4341586;33;20083;-40